createdAt,value
2022-11-06T00:00:44.256Z,92.00
2022-11-06T00:03:11.835Z,92.40
2022-11-06T00:06:02.419Z,92.30
2022-11-06T00:08:32.197Z,92.20
2022-11-06T00:10:59.892Z,92.10
2022-11-06T00:13:28.556Z,92.50
2022-11-06T00:15:56.122Z,92.30
2022-11-06T00:18:26.249Z,92.00
2022-11-06T00:20:54.569Z,92.10
2022-11-06T00:23:22.130Z,91.80
2022-11-06T00:25:54.152Z,91.60
2022-11-06T00:28:21.801Z,91.90
2022-11-06T00:30:50.308Z,92.00
2022-11-06T00:33:18.069Z,91.90
2022-11-06T00:35:45.761Z,91.90
2022-11-06T00:38:13.462Z,91.80
2022-11-06T00:40:41.755Z,91.40
2022-11-06T00:43:10.105Z,91.20
2022-11-06T00:45:37.628Z,91.00
2022-11-06T00:48:05.326Z,90.70
2022-11-06T00:50:33.155Z,90.70
2022-11-06T00:53:00.695Z,90.70
2022-11-06T00:55:28.211Z,90.80
2022-11-06T00:57:55.757Z,90.30
2022-11-06T01:00:23.308Z,90.30
2022-11-06T01:02:52.180Z,90.30
2022-11-06T01:05:19.823Z,89.80
2022-11-06T01:07:47.379Z,90.80
2022-11-06T01:10:15.937Z,90.50
2022-11-06T01:12:43.728Z,90.10
2022-11-06T01:15:11.339Z,90.10
2022-11-06T01:17:39.384Z,90.40
2022-11-06T01:20:07.402Z,90.10
2022-11-06T01:22:35.187Z,89.40
2022-11-06T01:25:04.161Z,88.50
2022-11-06T01:27:32.312Z,88.60
2022-11-06T01:30:00.338Z,87.10
2022-11-06T01:32:27.962Z,87.70
2022-11-06T01:34:58.669Z,87.20
2022-11-06T01:37:39.825Z,86.30
2022-11-06T01:40:08.028Z,86.50
2022-11-06T01:42:35.534Z,86.80
2022-11-06T01:45:09.155Z,86.20
2022-11-06T01:47:36.965Z,85.80
2022-11-06T01:50:08.400Z,85.70
2022-11-06T01:52:36.641Z,85.30
2022-11-06T01:55:08.667Z,85.20
2022-11-06T01:57:36.285Z,84.70
2022-11-06T02:00:04.985Z,84.80
2022-11-06T02:02:32.784Z,84.70
2022-11-06T02:05:00.506Z,84.00
2022-11-06T02:07:31.389Z,83.70
2022-11-06T02:10:08.063Z,84.30
2022-11-06T02:12:59.153Z,82.80
2022-11-06T02:15:45.807Z,83.20
2022-11-06T02:18:19.616Z,82.50
2022-11-06T02:21:05.337Z,78.70
2022-11-06T02:23:45.281Z,79.80
2022-11-06T02:26:33.193Z,80.30
2022-11-06T02:29:07.395Z,80.80
2022-11-06T02:31:36.934Z,80.20
2022-11-06T02:34:10.805Z,80.70
2022-11-06T02:36:44.396Z,80.00
2022-11-06T02:39:14.987Z,80.00
2022-11-06T02:41:44.752Z,80.50
2022-11-06T02:44:15.212Z,80.00
2022-11-06T02:46:50.419Z,80.10
2022-11-06T02:49:20.001Z,79.60
2022-11-06T02:51:51.840Z,79.50
2022-11-06T02:54:21.741Z,77.60
2022-11-06T02:56:53.655Z,77.80
2022-11-06T02:59:33.472Z,78.40
2022-11-06T03:02:07.194Z,78.60
2022-11-06T03:04:38.318Z,77.60
2022-11-06T03:07:18.095Z,76.20
2022-11-06T03:09:46.100Z,77.70
2022-11-06T03:12:32.069Z,77.80
2022-11-06T03:15:03.717Z,77.80
2022-11-06T03:17:40.195Z,77.00
2022-11-06T03:20:27.084Z,76.40
2022-11-06T03:22:54.669Z,74.80
2022-11-06T03:25:35.795Z,77.30
2022-11-06T03:28:03.907Z,77.60
2022-11-06T03:30:33.978Z,74.70
2022-11-06T03:33:17.022Z,76.20
2022-11-06T03:35:46.718Z,76.70
2022-11-06T03:38:41.840Z,75.20
2022-11-06T03:41:13.534Z,75.30
2022-11-06T03:43:44.860Z,76.70
2022-11-06T03:46:17.190Z,77.80
2022-11-06T03:48:46.977Z,76.00
2022-11-06T03:51:20.575Z,75.70
2022-11-06T03:54:00.647Z,76.00
2022-11-06T03:57:00.275Z,75.60
2022-11-06T03:59:30.748Z,75.00
2022-11-06T04:01:59.488Z,74.20
2022-11-06T04:04:33.323Z,74.30
2022-11-06T04:07:03.899Z,76.20
2022-11-06T04:09:52.022Z,73.00
2022-11-06T04:12:40.242Z,73.60
2022-11-06T04:15:09.649Z,74.70
2022-11-06T04:17:38.082Z,75.30
2022-11-06T04:20:10.191Z,75.50
2022-11-06T04:22:49.936Z,72.40
2022-11-06T04:25:48.850Z,74.30
2022-11-06T04:28:16.452Z,75.20
2022-11-06T04:30:50.190Z,71.90
2022-11-06T04:33:25.945Z,71.90
2022-11-06T04:36:18.085Z,72.10
2022-11-06T04:39:02.066Z,72.30
2022-11-06T04:41:34.912Z,72.70
2022-11-06T04:44:09.614Z,71.50
2022-11-06T04:46:45.834Z,68.90
2022-11-06T04:49:13.880Z,71.30
2022-11-06T04:51:43.514Z,70.40
2022-11-06T04:54:11.501Z,69.60
2022-11-06T04:56:45.578Z,68.90
2022-11-06T04:59:17.789Z,71.60
2022-11-06T05:01:46.505Z,71.40
2022-11-06T05:04:14.168Z,72.40
2022-11-06T05:06:41.756Z,71.70
2022-11-06T05:09:10.111Z,71.70
2022-11-06T05:11:38.669Z,69.60
2022-11-06T05:14:06.289Z,69.30
2022-11-06T05:16:34.945Z,67.90
2022-11-06T05:19:02.469Z,67.70
2022-11-06T05:21:49.082Z,66.70
2022-11-06T05:24:16.700Z,70.90
2022-11-06T05:26:44.273Z,71.50
2022-11-06T05:29:12.763Z,67.80
2022-11-06T05:31:40.939Z,66.50
2022-11-06T05:34:08.490Z,67.70
2022-11-06T05:36:36.367Z,68.80
2022-11-06T05:39:04.077Z,66.50
2022-11-06T05:41:31.697Z,67.20
2022-11-06T05:44:02.778Z,66.20
2022-11-06T05:47:00.296Z,69.30
2022-11-06T05:49:19.805Z,67.30
2022-11-06T05:51:47.639Z,69.00
2022-11-06T05:54:15.331Z,68.10
2022-11-06T05:56:43.364Z,70.30
2022-11-06T05:59:10.953Z,66.00
2022-11-06T06:01:38.697Z,65.10
2022-11-06T06:04:06.578Z,70.60
2022-11-06T06:06:34.293Z,69.70
2022-11-06T06:09:01.883Z,69.20
2022-11-06T06:11:30.336Z,68.70
2022-11-06T06:13:57.968Z,62.90
2022-11-06T06:16:25.566Z,65.50
2022-11-06T06:18:53.114Z,65.80
2022-11-06T06:21:20.949Z,68.40
2022-11-06T06:23:48.978Z,69.30
2022-11-06T06:26:16.674Z,64.50
2022-11-06T06:28:44.731Z,65.40
2022-11-06T06:31:12.462Z,66.90
2022-11-06T06:33:40.010Z,66.20
2022-11-06T06:36:07.811Z,66.40
2022-11-06T06:38:35.592Z,66.00
2022-11-06T06:41:04.467Z,66.90
2022-11-06T06:43:32.138Z,64.60
2022-11-06T06:46:00.848Z,66.60
2022-11-06T06:48:28.636Z,68.30
2022-11-06T06:51:03.133Z,65.70
2022-11-06T06:53:30.751Z,66.00
2022-11-06T06:56:02.530Z,62.90
2022-11-06T06:58:30.616Z,62.70
2022-11-06T07:01:11.447Z,64.80
2022-11-06T07:03:39.344Z,64.20
2022-11-06T07:06:07.419Z,60.90
2022-11-06T07:08:35.040Z,61.70
2022-11-06T07:11:03.419Z,63.70
2022-11-06T07:13:35.506Z,65.70
2022-11-06T07:16:08.009Z,64.60
2022-11-06T07:18:41.353Z,65.10
2022-11-06T07:21:10.778Z,65.40
2022-11-06T07:26:13.835Z,61.70
2022-11-06T07:28:42.084Z,62.80
2022-11-06T07:31:10.816Z,59.70
2022-11-06T07:33:38.374Z,60.30
2022-11-06T07:36:06.924Z,62.90
2022-11-06T07:38:35.315Z,61.60
2022-11-06T07:41:03.993Z,60.30
2022-11-06T07:43:33.149Z,60.60
2022-11-06T07:46:04.992Z,61.20
2022-11-06T07:48:33.870Z,63.00
2022-11-06T07:51:05.599Z,64.50
2022-11-06T07:53:33.634Z,63.80
2022-11-06T07:56:01.362Z,64.50
2022-11-06T07:58:29.436Z,64.70
2022-11-06T08:00:58.035Z,63.60
2022-11-06T08:03:26.131Z,65.30
2022-11-06T08:05:53.654Z,62.80
2022-11-06T08:08:21.206Z,62.40
2022-11-06T08:10:48.786Z,65.20
2022-11-06T08:13:17.289Z,62.10
2022-11-06T08:15:45.193Z,63.00
2022-11-06T08:18:13.058Z,63.60
2022-11-06T08:20:53.167Z,63.80
2022-11-06T08:23:20.833Z,64.90
2022-11-06T08:25:50.683Z,63.70
2022-11-06T08:28:18.253Z,62.10
2022-11-06T08:30:45.819Z,63.20
2022-11-06T08:33:15.982Z,59.80
2022-11-06T08:35:43.648Z,61.90
2022-11-06T08:38:11.616Z,61.70
2022-11-06T08:40:42.478Z,62.60
2022-11-06T08:43:11.077Z,62.50
2022-11-06T08:45:42.227Z,62.70
2022-11-06T08:48:10.070Z,64.60
2022-11-06T08:50:39.026Z,65.60
2022-11-06T08:53:07.040Z,66.00
2022-11-06T08:55:35.002Z,59.50
2022-11-06T08:58:03.372Z,63.60
2022-11-06T09:00:31.623Z,64.60
2022-11-06T09:03:01.219Z,64.40
2022-11-06T09:05:29.744Z,64.00
2022-11-06T09:07:58.088Z,59.40
2022-11-06T09:10:26.120Z,61.40
2022-11-06T09:12:53.962Z,62.20
2022-11-06T09:15:22.584Z,61.80
2022-11-06T09:17:51.607Z,62.40
2022-11-06T09:20:21.061Z,64.60
2022-11-06T09:22:49.198Z,61.00
2022-11-06T09:25:17.654Z,60.80
2022-11-06T09:27:45.580Z,60.20
2022-11-06T09:30:15.013Z,61.40
2022-11-06T09:32:46.612Z,59.50
2022-11-06T09:35:14.406Z,60.10
2022-11-06T09:37:42.956Z,61.10
2022-11-06T09:40:18.817Z,63.50
2022-11-06T09:42:55.688Z,63.90
2022-11-06T09:45:29.064Z,62.00
2022-11-06T09:48:19.163Z,61.20
2022-11-06T09:50:52.899Z,60.60
2022-11-06T09:53:26.389Z,60.10
2022-11-06T09:55:54.038Z,60.70
2022-11-06T09:58:23.906Z,61.60
2022-11-06T10:00:54.094Z,63.10
2022-11-06T10:03:31.809Z,60.50
2022-11-06T10:05:59.487Z,60.60
2022-11-06T10:08:28.661Z,61.90
2022-11-06T10:10:59.335Z,62.10
2022-11-06T10:13:49.766Z,62.50
2022-11-06T10:16:23.720Z,62.60
2022-11-06T10:18:54.112Z,62.50
2022-11-06T10:21:27.976Z,64.20
2022-11-06T10:23:59.175Z,64.90
2022-11-06T10:26:47.655Z,64.20
2022-11-06T10:29:18.259Z,63.60
2022-11-06T10:32:00.907Z,63.60
2022-11-06T10:34:34.415Z,64.00
2022-11-06T10:37:08.627Z,63.90
2022-11-06T10:39:37.115Z,63.90
2022-11-06T10:42:19.061Z,63.40
2022-11-06T10:44:49.564Z,63.90
2022-11-06T10:47:21.270Z,64.20
2022-11-06T10:49:56.412Z,64.10
2022-11-06T10:52:32.984Z,63.60
2022-11-06T10:55:19.014Z,64.30
2022-11-06T10:58:02.897Z,64.60
2022-11-06T11:00:32.515Z,64.60
2022-11-06T11:03:02.430Z,64.50
2022-11-06T11:05:36.986Z,65.00
2022-11-06T11:08:04.841Z,65.40
2022-11-06T11:10:36.870Z,65.60
2022-11-06T11:13:08.356Z,65.90
2022-11-06T11:15:46.202Z,66.00
2022-11-06T11:18:18.397Z,66.20
2022-11-06T11:20:50.293Z,66.40
2022-11-06T11:23:19.428Z,66.50
2022-11-06T11:25:48.854Z,66.70
2022-11-06T11:28:30.840Z,66.80
2022-11-06T11:30:58.665Z,67.20
2022-11-06T11:33:27.063Z,67.20
2022-11-06T11:35:55.533Z,67.50
2022-11-06T11:38:24.070Z,67.60
2022-11-06T11:40:51.936Z,67.90
2022-11-06T11:43:23.997Z,68.00
2022-11-06T11:46:09.911Z,68.10
2022-11-06T11:48:55.948Z,68.20
2022-11-06T11:51:26.273Z,68.50
2022-11-06T11:53:55.507Z,68.90
2022-11-06T11:56:49.691Z,68.90
2022-11-06T11:59:15.983Z,69.10
2022-11-06T12:01:43.790Z,69.20
2022-11-06T12:04:18.213Z,69.50
2022-11-06T12:06:53.629Z,69.50
2022-11-06T12:09:21.635Z,69.60
2022-11-06T12:11:49.381Z,69.70
2022-11-06T12:17:23.213Z,70.00
2022-11-06T12:19:55.572Z,70.00
2022-11-06T12:22:26.024Z,70.10
2022-11-06T12:25:00.434Z,70.10
2022-11-06T12:27:35.853Z,70.10
2022-11-06T12:30:08.081Z,70.00
2022-11-06T12:32:35.672Z,70.10
2022-11-06T12:35:26.205Z,70.10
2022-11-06T12:38:12.666Z,70.10
2022-11-06T12:40:41.969Z,70.20
2022-11-06T12:43:15.535Z,70.40
2022-11-06T12:46:01.612Z,70.40
2022-11-06T12:48:29.092Z,70.60
2022-11-06T12:51:05.910Z,70.90
2022-11-06T12:53:33.424Z,70.90
2022-11-06T12:56:13.545Z,70.80
2022-11-06T12:58:44.222Z,70.90
2022-11-06T13:01:30.425Z,71.00
2022-11-06T13:04:18.191Z,71.00
2022-11-06T13:06:57.958Z,71.10
2022-11-06T13:09:31.053Z,71.10
2022-11-06T13:12:04.750Z,71.70
2022-11-06T13:14:32.329Z,71.40
2022-11-06T13:17:14.969Z,71.40
2022-11-06T13:19:45.544Z,71.40
2022-11-06T13:22:42.541Z,71.40
2022-11-06T13:25:16.238Z,71.40
2022-11-06T13:27:48.858Z,71.50
2022-11-06T13:30:20.160Z,71.50
2022-11-06T13:32:54.427Z,71.60
2022-11-06T13:35:22.640Z,71.70
2022-11-06T13:37:53.657Z,71.70
2022-11-06T13:40:25.173Z,71.80
2022-11-06T13:42:56.836Z,71.70
2022-11-06T13:45:25.557Z,71.80
2022-11-06T13:47:56.367Z,71.90
2022-11-06T13:50:23.917Z,71.90
2022-11-06T13:52:57.193Z,71.90
2022-11-06T13:55:47.382Z,72.00
2022-11-06T13:58:33.389Z,71.90
2022-11-06T14:01:33.280Z,72.00
2022-11-06T14:04:00.979Z,72.00
2022-11-06T14:06:30.045Z,72.00
2022-11-06T14:09:00.515Z,72.10
2022-11-06T14:11:32.367Z,72.20
2022-11-06T14:14:04.313Z,72.20
2022-11-06T14:16:37.632Z,72.30
2022-11-06T14:19:06.978Z,72.30
2022-11-06T14:21:37.601Z,72.40
2022-11-06T14:24:06.007Z,72.60
2022-11-06T14:26:44.037Z,72.70
2022-11-06T14:29:27.018Z,72.80
2022-11-06T14:32:03.365Z,72.90
2022-11-06T14:34:32.546Z,72.90
2022-11-06T14:37:19.949Z,72.90
2022-11-06T14:39:56.574Z,72.80
2022-11-06T14:45:19.681Z,73.10
2022-11-06T14:47:50.073Z,73.00
2022-11-06T14:50:20.557Z,73.00
2022-11-06T14:53:06.827Z,73.30
2022-11-06T14:55:44.219Z,73.30
2022-11-06T14:58:21.037Z,73.40
2022-11-06T15:00:53.647Z,73.60
2022-11-06T15:03:21.238Z,73.80
2022-11-06T15:05:52.520Z,73.70
2022-11-06T15:08:38.814Z,73.80
2022-11-06T15:11:07.506Z,73.60
2022-11-06T15:13:35.068Z,73.80
2022-11-06T15:16:04.132Z,73.90
2022-11-06T15:18:33.182Z,73.90
2022-11-06T15:21:02.597Z,74.10
2022-11-06T15:23:41.826Z,74.30
2022-11-06T15:26:29.391Z,74.40
2022-11-06T15:29:05.298Z,74.30
2022-11-06T15:31:33.835Z,74.00
2022-11-06T15:34:01.391Z,74.00
2022-11-06T15:36:29.847Z,74.00
2022-11-06T15:38:57.407Z,74.50
2022-11-06T15:41:26.014Z,74.80
2022-11-06T15:43:55.245Z,74.70
2022-11-06T15:46:27.982Z,74.60
2022-11-06T15:49:13.969Z,74.70
2022-11-06T15:51:41.571Z,75.00
2022-11-06T15:54:14.312Z,74.70
2022-11-06T15:56:42.748Z,74.70
2022-11-06T15:59:11.889Z,75.60
2022-11-06T16:01:40.453Z,74.80
2022-11-06T16:04:28.130Z,74.80
2022-11-06T16:06:57.063Z,74.90
2022-11-06T16:09:27.031Z,75.00
2022-11-06T16:11:54.870Z,75.10
2022-11-06T16:14:22.695Z,75.60
2022-11-06T16:16:57.204Z,75.50
2022-11-06T16:19:31.030Z,75.70
2022-11-06T16:22:03.531Z,75.70
2022-11-06T16:24:33.627Z,76.50
2022-11-06T16:27:05.796Z,75.60
2022-11-06T16:29:33.649Z,75.90
2022-11-06T16:32:03.215Z,76.30
2022-11-06T16:34:30.691Z,76.50
2022-11-06T16:37:02.437Z,76.60
2022-11-06T16:39:48.078Z,76.70
2022-11-06T16:42:23.687Z,76.80
2022-11-06T16:44:59.845Z,77.00
2022-11-06T16:47:27.450Z,77.00
2022-11-06T16:49:59.066Z,77.10
2022-11-06T16:52:29.477Z,77.10
2022-11-06T16:55:06.145Z,77.10
2022-11-06T16:57:42.993Z,77.10
2022-11-06T17:00:24.195Z,77.20
2022-11-06T17:02:59.450Z,77.40
2022-11-06T17:05:34.361Z,77.70
2022-11-06T17:08:09.741Z,77.70
2022-11-06T17:10:42.068Z,77.60
2022-11-06T17:13:14.727Z,78.00
2022-11-06T17:15:43.101Z,78.10
2022-11-06T17:18:18.029Z,78.30
2022-11-06T17:20:51.783Z,77.80
2022-11-06T17:23:19.847Z,78.30
2022-11-06T17:25:48.218Z,78.30
2022-11-06T17:28:16.639Z,78.30
2022-11-06T17:30:45.059Z,78.20
2022-11-06T17:33:12.903Z,78.10
2022-11-06T17:35:40.579Z,77.90
2022-11-06T17:38:09.360Z,78.20
2022-11-06T17:40:36.980Z,77.80
2022-11-06T17:43:04.511Z,78.30
2022-11-06T17:45:32.855Z,78.80
2022-11-06T17:48:00.371Z,78.60
2022-11-06T17:50:28.007Z,78.50
2022-11-06T17:52:55.548Z,79.70
2022-11-06T17:55:23.061Z,78.70
2022-11-06T17:57:50.762Z,79.70
2022-11-06T18:00:20.607Z,79.80
2022-11-06T18:03:00.865Z,80.20
2022-11-06T18:05:30.646Z,80.40
2022-11-06T18:07:58.185Z,80.80
2022-11-06T18:10:30.387Z,80.40
2022-11-06T18:12:58.387Z,81.00
2022-11-06T18:15:26.770Z,81.00
2022-11-06T18:17:54.256Z,80.80
2022-11-06T18:20:22.636Z,81.70
2022-11-06T18:22:50.274Z,81.50
2022-11-06T18:25:17.798Z,81.30
2022-11-06T18:27:45.327Z,81.30
2022-11-06T18:30:13.477Z,81.80
2022-11-06T18:32:40.982Z,81.60
2022-11-06T18:35:09.596Z,82.70
2022-11-06T18:37:37.104Z,82.00
2022-11-06T18:40:04.769Z,82.40
2022-11-06T18:42:32.341Z,82.20
2022-11-06T18:44:59.845Z,81.90
2022-11-06T18:47:27.421Z,81.80
2022-11-06T18:49:55.762Z,81.50
2022-11-06T18:52:44.468Z,81.80
2022-11-06T18:55:11.002Z,81.40
2022-11-06T18:57:38.511Z,81.30
2022-11-06T19:00:06.549Z,81.60
2022-11-06T19:02:34.672Z,81.70
2022-11-06T19:05:03.081Z,81.60
2022-11-06T19:07:30.768Z,81.50
2022-11-06T19:09:58.370Z,81.60
2022-11-06T19:12:26.828Z,81.30
2022-11-06T19:14:54.364Z,81.10
2022-11-06T19:17:21.956Z,81.60
2022-11-06T19:19:49.650Z,81.70
2022-11-06T19:22:17.216Z,81.80
2022-11-06T19:24:44.705Z,81.70
2022-11-06T19:27:13.062Z,82.60
2022-11-06T19:29:40.541Z,83.10
2022-11-06T19:32:08.093Z,82.80
2022-11-06T19:34:39.188Z,82.80
2022-11-06T19:37:07.120Z,83.10
2022-11-06T19:39:36.024Z,83.30
2022-11-06T19:42:03.577Z,83.30
2022-11-06T19:44:31.136Z,83.40
2022-11-06T19:46:58.687Z,83.50
2022-11-06T19:49:26.174Z,83.20
2022-11-06T19:51:53.766Z,83.20
2022-11-06T19:54:21.335Z,83.10
2022-11-06T19:57:27.831Z,83.50
2022-11-06T19:59:37.808Z,83.50
2022-11-06T20:02:05.543Z,83.60
2022-11-06T20:04:33.147Z,83.30
2022-11-06T20:07:00.716Z,83.50
2022-11-06T20:09:28.610Z,83.10
2022-11-06T20:11:56.169Z,84.20
2022-11-06T20:14:24.578Z,83.50
2022-11-06T20:16:52.097Z,84.40
2022-11-06T20:19:19.685Z,84.40
2022-11-06T20:21:47.184Z,84.30
2022-11-06T20:24:14.909Z,84.70
2022-11-06T20:26:42.428Z,85.10
2022-11-06T20:29:09.909Z,84.60
2022-11-06T20:31:39.213Z,84.40
2022-11-06T20:34:07.104Z,84.00
2022-11-06T20:36:35.867Z,84.00
2022-11-06T20:39:03.567Z,83.20
2022-11-06T20:41:31.489Z,83.80
2022-11-06T20:43:59.505Z,83.50
2022-11-06T20:46:27.022Z,83.70
2022-11-06T20:48:54.606Z,83.50
2022-11-06T20:51:23.538Z,84.30
2022-11-06T20:53:52.357Z,84.20
2022-11-06T20:56:22.011Z,84.30
2022-11-06T20:58:50.305Z,84.30
2022-11-06T21:01:20.914Z,84.30
2022-11-06T21:03:50.072Z,84.30
2022-11-06T21:06:18.364Z,84.60
2022-11-06T21:08:46.433Z,85.00
2022-11-06T21:11:17.176Z,84.60
2022-11-06T21:13:46.097Z,83.90
2022-11-06T21:16:15.451Z,84.40
2022-11-06T21:18:43.270Z,84.00
2022-11-06T21:21:12.276Z,84.50
2022-11-06T21:23:40.353Z,84.90
2022-11-06T21:26:09.410Z,85.10
2022-11-06T21:28:37.445Z,84.90
2022-11-06T21:31:05.348Z,85.40
2022-11-06T21:33:32.879Z,85.10
2022-11-06T21:36:11.921Z,84.30
2022-11-06T21:38:40.650Z,84.30
2022-11-06T21:41:08.696Z,84.40
2022-11-06T21:43:36.565Z,83.80
2022-11-06T21:46:08.401Z,84.50
2022-11-06T21:48:51.747Z,84.20
2022-11-06T21:51:21.455Z,84.50
2022-11-06T21:54:07.845Z,84.60
2022-11-06T21:56:35.528Z,85.00
2022-11-06T21:59:03.681Z,84.70
2022-11-06T22:01:31.998Z,84.60
2022-11-06T22:03:59.848Z,85.50
2022-11-06T22:06:28.140Z,85.50
2022-11-06T22:08:57.149Z,85.00
2022-11-06T22:11:26.395Z,85.10
2022-11-06T22:13:54.718Z,85.40
2022-11-06T22:16:24.421Z,85.30
2022-11-06T22:18:53.228Z,85.50
2022-11-06T22:21:25.158Z,85.40
2022-11-06T22:23:52.717Z,85.70
2022-11-06T22:26:22.774Z,85.30
2022-11-06T22:28:54.767Z,84.10
2022-11-06T22:31:22.415Z,84.10
2022-11-06T22:33:53.756Z,84.60
2022-11-06T22:36:22.213Z,84.90
2022-11-06T22:38:50.188Z,85.20
2022-11-06T22:41:18.904Z,85.40
2022-11-06T22:43:47.071Z,85.30
2022-11-06T22:46:16.273Z,85.20
2022-11-06T22:48:44.224Z,85.10
2022-11-06T22:51:13.313Z,85.20
2022-11-06T22:53:41.213Z,85.40
2022-11-06T22:56:09.878Z,84.90
2022-11-06T22:58:37.446Z,84.90
2022-11-06T23:01:05.093Z,85.20
2022-11-06T23:03:32.745Z,85.50
2022-11-06T23:06:03.662Z,85.70
2022-11-06T23:08:31.265Z,86.80
2022-11-06T23:10:59.452Z,86.00
2022-11-06T23:13:27.039Z,86.60
2022-11-06T23:16:01.057Z,86.60
2022-11-06T23:18:28.738Z,86.90
2022-11-06T23:20:56.431Z,86.40
2022-11-06T23:23:24.251Z,86.10
2022-11-06T23:25:51.995Z,86.20
2022-11-06T23:28:20.522Z,86.60
2022-11-06T23:30:48.096Z,87.50
2022-11-06T23:33:15.901Z,87.70
2022-11-06T23:35:43.634Z,87.30
2022-11-06T23:38:11.116Z,88.00
2022-11-06T23:40:38.671Z,87.90
2022-11-06T23:43:06.196Z,87.00
2022-11-06T23:45:48.978Z,87.70
2022-11-06T23:48:17.026Z,87.70
2022-11-06T23:50:47.476Z,87.80
2022-11-06T23:53:16.572Z,88.00
2022-11-06T23:55:44.480Z,88.10
2022-11-06T23:58:12.073Z,87.60
